KPHD

Harry Clever Field Airport

New Philadelphia, Ohio, USA
METAR KPHD 151553Z AUTO 06009G17KT 10SM -RA BKN013 BKN023 OVC080 09/07 A3005 RMK AO2 SLP178 P0001 T00940072
Observed Flight Rules
Dec-15 @ 15:53 UTC (11 minutes ago) Marginal Visual Flight Rules
Wind Visibility Clouds Conditions
60° at 9 knots
 Gusting to 17 knots
10 miles
  • Broken at 1,300' AGL
  • Broken at 2,300' AGL
  • Overcast at 8,000' AGL
  • Light Rain
Temperatures Readings Precipitation
Current 9°C / 48°F
Dewpoint 7°C / 45°F
Humidity 87%
Altimeter 30.05" Hg
Pressure 1017.8 hPa
Elevation 272
Current Rain 0.01
METAR KPHD 151553Z AUTO 06009G17KT 10SM -RA BKN013 BKN023 OVC080 09/07 A3005 RMK AO2 SLP178 P0001 T00940072
Observed Flight Rules
Dec-15 @ 15:53 UTC
(11 minutes ago)
MVFR
Wind Visibility
60° at 9 knots
 Gusting to 17 knots
10 miles
Clouds
  • Broken at 1,300' AGL
  • Broken at 2,300' AGL
  • Overcast at 8,000' AGL
Conditions
  • Light Rain
Temperature Dewpoint
9°C / 48°F 7°C / 45°F
Humidity Altimeter Pressure
87% 30.05" Hg 1017.8 hPa
Current Rain
0.01